Time;durP1;ratioP1;P1;durP2;ratioP2;P2;SDS_P1;SDS_P2;PMS_P1;PMS_P2;Temp;Humidity;BMP_temperature;BMP_pressure;BME280_temperature;BME280_humidity;BME280_pressure;Samples;Min_cycle;Max_cycle;Signal;HPM_P1;HPM_P2
2023/05/02 00:00:28;;;;;;;57.58;36.25;;;11.50;87.90;;;;;;5100940;28;20382;-71
2023/05/02 00:02:53;;;;;;;60.50;37.38;;;11.50;88.00;;;;;;5102346;28;20386;-72
2023/05/02 00:05:19;;;;;;;60.20;37.37;;;11.50;88.30;;;;;;5107746;28;20443;-71
2023/05/02 00:07:45;;;;;;;57.60;38.13;;;11.50;88.70;;;;;;5107453;28;20417;-71
2023/05/02 00:10:11;;;;;;;61.83;38.78;;;11.40;88.80;;;;;;5087898;28;20913;-70
2023/05/02 00:12:37;;;;;;;62.03;40.05;;;11.40;89.80;;;;;;5102340;28;20996;-70
2023/05/02 00:15:03;;;;;;;62.97;40.90;;;11.30;90.30;;;;;;5100393;28;20455;-69
2023/05/02 00:17:29;;;;;;;63.05;40.42;;;11.30;91.40;;;;;;5102132;28;20386;-70
2023/05/02 00:19:55;;;;;;;72.07;41.23;;;11.20;91.90;;;;;;5101274;28;20447;-71
2023/05/02 00:22:20;;;;;;;75.10;41.50;;;11.20;93.10;;;;;;5104529;28;20766;-71
2023/05/02 00:24:46;;;;;;;75.95;45.38;;;11.10;93.90;;;;;;5105655;28;20477;-71
2023/05/02 00:27:13;;;;;;;76.30;47.53;;;11.10;94.70;;;;;;5100664;28;20405;-70
2023/05/02 00:29:39;;;;;;;76.67;44.77;;;11.10;95.30;;;;;;5099257;28;20448;-73
2023/05/02 00:32:05;;;;;;;74.93;44.58;;;11.10;94.80;;;;;;5098132;28;20461;-72
2023/05/02 00:34:31;;;;;;;83.22;44.90;;;11.10;94.30;;;;;;5096818;28;20479;-71
2023/05/02 00:36:57;;;;;;;86.47;48.25;;;11.00;94.40;;;;;;5079542;28;20886;-73
2023/05/02 00:39:23;;;;;;;89.90;44.38;;;11.00;95.20;;;;;;5096887;28;20825;-72
2023/05/02 00:41:48;;;;;;;87.43;47.83;;;10.90;96.20;;;;;;5097525;28;20439;-71
2023/05/02 00:44:14;;;;;;;92.03;50.07;;;10.80;97.30;;;;;;5096398;28;20405;-72
2023/05/02 00:46:40;;;;;;;89.70;51.03;;;10.80;98.30;;;;;;5077577;28;20413;-73
2023/05/02 00:49:05;;;;;;;94.93;48.73;;;10.80;98.70;;;;;;5097166;28;20893;-72
2023/05/02 00:51:34;;;;;;;101.20;51.07;;;10.80;99.00;;;;;;5096443;28;20374;-73
2023/05/02 00:54:00;;;;;;;105.68;52.58;;;10.80;99.80;;;;;;5096492;28;20375;-72
2023/05/02 00:56:26;;;;;;;112.50;53.95;;;10.80;99.90;;;;;;5095823;28;20469;-71
2023/05/02 00:58:52;;;;;;;100.43;53.22;;;10.80;99.90;;;;;;5078132;28;20406;-72
2023/05/02 01:01:52;;;;;;;112.57;56.80;;;10.80;99.90;;;;;;5095370;28;20382;-72
2023/05/02 01:04:39;;;;;;;109.38;53.28;;;10.90;99.90;;;;;;5095391;28;20390;-73
2023/05/02 01:07:23;;;;;;;108.10;52.83;;;10.90;99.10;;;;;;5094147;28;20401;-71
2023/05/02 01:10:13;;;;;;;115.30;56.50;;;11.00;98.50;;;;;;5095176;28;20374;-72
2023/05/02 01:12:59;;;;;;;105.63;54.40;;;10.90;99.00;;;;;;5076551;28;20725;-72
2023/05/02 01:15:25;;;;;;;113.55;56.17;;;10.80;99.50;;;;;;5093939;28;20866;-72
2023/05/02 01:17:53;;;;;;;115.45;57.05;;;10.80;99.90;;;;;;5099275;28;20377;-73
2023/05/02 01:20:22;;;;;;;114.93;55.08;;;10.70;99.90;;;;;;5111638;28;20390;-72
2023/05/02 01:22:49;;;;;;;120.57;57.10;;;10.60;99.90;;;;;;5110240;28;20393;-70
2023/05/02 01:25:40;;;;;;;119.97;58.38;;;10.60;99.90;;;;;;5107669;28;20384;-71
2023/05/02 01:28:26;;;;;;;120.90;60.00;;;10.50;99.90;;;;;;5099268;28;20394;-71
2023/05/02 01:30:55;;;;;;;119.60;57.63;;;10.60;99.90;;;;;;5094990;28;20803;-72
2023/05/02 01:33:23;;;;;;;112.90;58.63;;;10.60;99.90;;;;;;5092403;28;20958;-72
2023/05/02 01:35:50;;;;;;;118.57;59.70;;;10.70;99.90;;;;;;5092436;28;20386;-72
2023/05/02 01:38:17;;;;;;;122.18;58.70;;;10.70;99.90;;;;;;5092532;28;20388;-72
2023/05/02 01:40:49;;;;;;;124.87;59.30;;;10.80;99.90;;;;;;5092691;28;20386;-72
2023/05/02 01:43:17;;;;;;;119.25;57.05;;;10.80;99.90;;;;;;5093296;28;20432;-73
2023/05/02 01:45:45;;;;;;;111.97;55.00;;;10.90;99.90;;;;;;5074957;28;20369;-72
2023/05/02 01:48:14;;;;;;;112.93;53.13;;;10.90;99.50;;;;;;5074881;28;20423;-72
2023/05/02 01:50:42;;;;;;;108.85;52.13;;;10.80;99.90;;;;;;5093179;28;20382;-71
2023/05/02 01:53:12;;;;;;;116.20;53.28;;;10.80;99.90;;;;;;5074020;28;20382;-72
2023/05/02 01:55:42;;;;;;;108.47;51.88;;;10.80;99.90;;;;;;5092376;28;20370;-71
2023/05/02 01:58:09;;;;;;;109.37;52.27;;;10.80;99.90;;;;;;5092657;28;20379;-72
2023/05/02 02:00:36;;;;;;;109.65;52.22;;;10.90;99.90;;;;;;5092512;28;20401;-72
2023/05/02 02:03:05;;;;;;;99.30;48.45;;;11.00;99.60;;;;;;5091344;28;20382;-72
2023/05/02 02:05:32;;;;;;;98.28;49.33;;;11.00;97.90;;;;;;5091330;28;20838;-71
2023/05/02 02:07:58;;;;;;;95.07;46.13;;;11.00;97.20;;;;;;5091153;28;20436;-71
2023/05/02 02:10:27;;;;;;;103.20;47.88;;;11.00;96.30;;;;;;5091533;28;20374;-71
2023/05/02 02:13:02;;;;;;;93.30;46.47;;;11.10;96.80;;;;;;5091017;28;20378;-71
2023/05/02 02:15:31;;;;;;;92.47;47.17;;;11.10;95.60;;;;;;5091468;28;20378;-73
2023/05/02 02:18:20;;;;;;;91.50;45.95;;;11.20;94.60;;;;;;5091238;28;20413;-71
2023/05/02 02:20:47;;;;;;;94.30;45.88;;;11.20;94.20;;;;;;5091651;28;20390;-71
2023/05/02 02:23:14;;;;;;;96.47;46.65;;;11.20;94.30;;;;;;5091008;28;20390;-71
2023/05/02 02:25:41;;;;;;;95.53;45.97;;;11.20;95.20;;;;;;5073078;28;20421;-72
2023/05/02 02:28:06;;;;;;;89.72;44.80;;;11.20;94.50;;;;;;5091029;28;20918;-73
2023/05/02 02:30:32;;;;;;;93.20;45.87;;;11.20;93.80;;;;;;5091415;28;20378;-73
2023/05/02 02:32:58;;;;;;;88.27;43.00;;;11.30;94.40;;;;;;5091368;28;20385;-73
2023/05/02 02:35:29;;;;;;;90.30;47.00;;;11.30;93.20;;;;;;5091781;28;20378;-72
2023/05/02 02:38:03;;;;;;;91.15;44.38;;;11.40;92.90;;;;;;5092187;28;20392;-72
2023/05/02 02:40:33;;;;;;;88.00;43.50;;;11.40;92.70;;;;;;5092587;28;20770;-72
2023/05/02 02:43:36;;;;;;;89.72;46.05;;;11.40;92.20;;;;;;5074688;28;20477;-73
2023/05/02 02:46:28;;;;;;;84.32;44.47;;;11.40;93.20;;;;;;5093896;28;20464;-72
2023/05/02 02:49:17;;;;;;;97.47;46.08;;;11.40;92.10;;;;;;5094920;28;20383;-73
2023/05/02 02:51:52;;;;;;;94.90;46.83;;;11.50;92.40;;;;;;5094899;28;20580;-71
2023/05/02 02:54:32;;;;;;;94.35;45.45;;;11.50;91.90;;;;;;5095434;28;20374;-72
2023/05/02 02:57:12;;;;;;;91.18;44.55;;;11.50;91.80;;;;;;5093991;28;20414;-71
2023/05/02 02:59:46;;;;;;;89.27;44.97;;;11.50;91.90;;;;;;5091517;28;20447;-72
2023/05/02 03:02:16;;;;;;;88.07;44.78;;;11.50;91.90;;;;;;5090794;28;20443;-72
2023/05/02 03:04:43;;;;;;;90.90;45.83;;;11.60;90.20;;;;;;5092206;28;20425;-72
2023/05/02 03:07:09;;;;;;;94.47;44.28;;;11.60;91.00;;;;;;5097436;28;20400;-71
2023/05/02 03:09:46;;;;;;;83.72;42.78;;;11.70;89.40;;;;;;5083943;28;20378;-71
2023/05/02 03:12:12;;;;;;;86.65;45.10;;;11.70;90.30;;;;;;5105364;28;20412;-72
2023/05/02 03:14:39;;;;;;;85.00;42.47;;;11.60;90.30;;;;;;5103734;28;20389;-72
2023/05/02 03:17:04;;;;;;;83.68;44.20;;;11.70;89.70;;;;;;5104840;28;20405;-72
2023/05/02 03:19:30;;;;;;;86.43;42.83;;;11.70;89.30;;;;;;5111041;28;20453;-72
2023/05/02 03:21:56;;;;;;;74.27;38.97;;;11.70;89.70;;;;;;5106611;28;20386;-74
2023/05/02 03:24:21;;;;;;;79.93;39.00;;;11.60;87.80;;;;;;5099532;28;20386;-74
2023/05/02 03:26:47;;;;;;;75.57;38.20;;;11.70;88.70;;;;;;5073518;28;20409;-74
2023/05/02 03:29:15;;;;;;;79.90;40.23;;;11.60;88.20;;;;;;5094995;28;20467;-75
2023/05/02 03:31:41;;;;;;;73.35;38.65;;;11.70;89.10;;;;;;5076743;28;20397;-72
2023/05/02 03:34:07;;;;;;;76.57;39.28;;;11.70;88.40;;;;;;5101198;28;20382;-73
2023/05/02 03:36:32;;;;;;;66.45;35.13;;;11.70;87.90;;;;;;5110008;28;20401;-72
2023/05/02 03:38:58;;;;;;;66.47;34.33;;;11.80;85.30;;;;;;5107820;28;20527;-72
2023/05/02 03:41:26;;;;;;;52.58;28.25;;;11.70;84.50;;;;;;5102506;28;20390;-72
2023/05/02 03:43:51;;;;;;;46.72;25.90;;;11.70;81.30;;;;;;5101479;28;20795;-72
2023/05/02 03:46:17;;;;;;;44.23;24.20;;;11.70;81.60;;;;;;5095761;28;20532;-73
2023/05/02 03:48:45;;;;;;;44.43;23.30;;;11.60;80.60;;;;;;5075488;28;20410;-72
2023/05/02 03:51:10;;;;;;;51.78;25.25;;;11.70;79.80;;;;;;5094845;28;20382;-71
2023/05/02 03:53:36;;;;;;;40.23;23.30;;;11.60;80.00;;;;;;5097047;28;20425;-72
2023/05/02 03:56:02;;;;;;;45.30;25.20;;;11.70;80.00;;;;;;5096524;28;20863;-73
2023/05/02 03:58:28;;;;;;;47.47;25.40;;;11.70;79.60;;;;;;5096603;28;20866;-74
2023/05/02 04:00:54;;;;;;;45.97;24.73;;;11.70;79.40;;;;;;5095406;28;20397;-73
2023/05/02 04:03:20;;;;;;;45.88;25.98;;;11.70;80.10;;;;;;5096024;28;20427;-73
2023/05/02 04:05:46;;;;;;;48.88;26.33;;;11.70;79.70;;;;;;5095632;28;20603;-72
2023/05/02 04:08:12;;;;;;;51.07;27.03;;;11.70;79.60;;;;;;5094167;28;20496;-73
2023/05/02 04:10:38;;;;;;;40.20;21.95;;;11.70;79.40;;;;;;5094110;28;20385;-75
2023/05/02 04:13:03;;;;;;;40.45;23.40;;;11.70;77.40;;;;;;5099610;28;20469;-73
2023/05/02 04:15:30;;;;;;;41.85;22.80;;;11.80;77.80;;;;;;5104323;28;20374;-73
2023/05/02 04:17:59;;;;;;;39.92;22.67;;;11.80;78.70;;;;;;5095771;28;20401;-74
2023/05/02 04:20:25;;;;;;;42.85;22.52;;;11.80;79.20;;;;;;5094843;28;20397;-73
2023/05/02 04:22:51;;;;;;;47.10;22.70;;;11.80;79.40;;;;;;5095184;28;20491;-73
2023/05/02 04:25:16;;;;;;;45.65;22.55;;;11.70;79.70;;;;;;5094772;28;20412;-72
2023/05/02 04:27:42;;;;;;;48.40;22.45;;;11.70;79.70;;;;;;5094313;28;20459;-72
2023/05/02 04:30:11;;;;;;;46.13;22.98;;;11.70;80.60;;;;;;5094308;28;20459;-73
2023/05/02 04:32:37;;;;;;;47.65;23.58;;;11.70;81.20;;;;;;5093774;28;20390;-72
2023/05/02 04:35:03;;;;;;;45.27;23.07;;;11.60;81.60;;;;;;5094058;28;20390;-73
2023/05/02 04:37:28;;;;;;;44.30;24.13;;;11.60;83.00;;;;;;5093940;28;20386;-73
2023/05/02 04:39:54;;;;;;;51.83;24.23;;;11.60;83.80;;;;;;5094397;28;20472;-72
2023/05/02 04:42:20;;;;;;;54.70;28.47;;;11.60;83.80;;;;;;5093821;28;20381;-75
2023/05/02 04:44:47;;;;;;;48.67;24.10;;;11.60;84.80;;;;;;5094016;28;20600;-72
2023/05/02 04:47:12;;;;;;;51.47;25.55;;;11.60;84.30;;;;;;5093754;28;20429;-71
2023/05/02 04:49:38;;;;;;;53.40;26.87;;;11.50;85.30;;;;;;5093891;28;20375;-71
2023/05/02 04:52:05;;;;;;;57.97;27.97;;;11.60;86.20;;;;;;5093703;28;20788;-74
2023/05/02 04:54:32;;;;;;;59.40;28.95;;;11.60;86.70;;;;;;5093657;28;20370;-71
2023/05/02 04:56:58;;;;;;;50.57;25.23;;;11.60;89.00;;;;;;5093750;28;20408;-73
2023/05/02 04:59:23;;;;;;;60.33;26.25;;;11.50;87.60;;;;;;5093848;28;20373;-73
2023/05/02 05:01:49;;;;;;;61.15;30.35;;;11.50;88.80;;;;;;5092833;28;20930;-72
2023/05/02 05:04:14;;;;;;;64.95;30.02;;;11.50;91.50;;;;;;5076254;28;20846;-73
2023/05/02 05:06:40;;;;;;;63.80;27.83;;;11.50;91.10;;;;;;5094129;28;20478;-73
2023/05/02 05:09:06;;;;;;;63.60;29.07;;;11.40;92.60;;;;;;5094519;28;20374;-74
2023/05/02 05:11:31;;;;;;;56.40;27.83;;;11.30;95.20;;;;;;5093622;28;20370;-73
2023/05/02 05:13:57;;;;;;;61.03;28.70;;;11.20;96.80;;;;;;5096502;28;20742;-72
2023/05/02 05:16:22;;;;;;;67.00;30.93;;;11.20;98.90;;;;;;5095950;28;20383;-72
2023/05/02 05:18:48;;;;;;;62.90;29.97;;;11.20;99.90;;;;;;5094879;28;20398;-74
2023/05/02 05:21:14;;;;;;;63.77;30.07;;;11.20;99.90;;;;;;5095112;28;20388;-73
2023/05/02 05:23:44;;;;;;;64.13;29.47;;;11.10;99.90;;;;;;5099205;28;20453;-71
2023/05/02 05:26:10;;;;;;;63.55;31.83;;;11.10;99.90;;;;;;5098335;28;20382;-75
2023/05/02 05:28:35;;;;;;;61.97;29.27;;;11.20;99.90;;;;;;5098129;28;20408;-72
2023/05/02 05:31:06;;;;;;;56.80;27.87;;;11.20;99.90;;;;;;5101398;28;20378;-73
2023/05/02 05:33:32;;;;;;;70.50;33.30;;;11.20;99.90;;;;;;5106332;28;20449;-72
2023/05/02 05:36:04;;;;;;;53.80;26.40;;;11.30;99.90;;;;;;5106905;28;20378;-73
2023/05/02 05:38:29;;;;;;;58.00;29.67;;;11.10;99.90;;;;;;5099404;28;20465;-72
2023/05/02 05:40:55;;;;;;;45.70;20.42;;;11.10;99.90;;;;;;5099536;28;20431;-71
2023/05/02 05:43:20;;;;;;;56.70;28.47;;;11.00;99.90;;;;;;5096995;28;20755;-73
2023/05/02 05:45:46;;;;;;;48.60;25.97;;;11.00;99.90;;;;;;5094297;28;20374;-74
2023/05/02 05:48:12;;;;;;;37.03;18.13;;;11.10;99.90;;;;;;5095339;28;20409;-73
2023/05/02 05:50:37;;;;;;;29.50;16.20;;;11.10;99.90;;;;;;5095473;28;20370;-74
2023/05/02 05:53:03;;;;;;;32.07;18.27;;;11.20;97.80;;;;;;5092537;28;20398;-72
2023/05/02 05:55:28;;;;;;;29.30;17.43;;;11.20;97.00;;;;;;5093235;28;20879;-73
2023/05/02 05:57:54;;;;;;;25.73;15.38;;;11.20;94.40;;;;;;5092634;28;20734;-72
2023/05/02 06:00:22;;;;;;;32.63;16.20;;;11.30;92.30;;;;;;5093183;28;20931;-74
2023/05/02 06:02:48;;;;;;;26.40;15.35;;;11.50;91.90;;;;;;5093361;28;20439;-73
2023/05/02 06:05:14;;;;;;;19.30;10.68;;;11.50;90.80;;;;;;5093273;28;20960;-74
2023/05/02 06:07:40;;;;;;;22.50;12.25;;;11.50;89.90;;;;;;5099131;28;20410;-69
2023/05/02 06:10:06;;;;;;;20.20;11.33;;;11.40;92.00;;;;;;5113038;28;20425;-71
2023/05/02 06:12:31;;;;;;;19.80;11.70;;;11.50;91.50;;;;;;5102715;28;20414;-73
2023/05/02 06:14:57;;;;;;;21.17;12.60;;;11.50;90.70;;;;;;5091849;28;20390;-74
2023/05/02 06:17:22;;;;;;;26.77;13.50;;;11.50;89.50;;;;;;5094651;28;20414;-74
2023/05/02 06:19:48;;;;;;;24.50;13.10;;;11.50;91.20;;;;;;5078764;28;20386;-75
2023/05/02 06:22:13;;;;;;;28.15;15.50;;;11.30;91.30;;;;;;5095523;28;20449;-73
2023/05/02 06:24:39;;;;;;;29.52;14.85;;;11.30;93.80;;;;;;5095517;28;20416;-73
2023/05/02 06:27:04;;;;;;;24.13;13.70;;;11.40;90.00;;;;;;5092925;28;20404;-74
2023/05/02 06:29:30;;;;;;;23.15;12.27;;;11.50;88.90;;;;;;5097691;28;20448;-73
2023/05/02 06:31:55;;;;;;;20.80;11.83;;;11.40;82.20;;;;;;5100821;28;20425;-76
2023/05/02 06:34:21;;;;;;;24.40;10.80;;;11.40;80.20;;;;;;5096103;28;20739;-74
2023/05/02 06:36:47;;;;;;;20.27;10.35;;;11.40;78.10;;;;;;5076400;28;20751;-74
2023/05/02 06:39:12;;;;;;;15.75;7.97;;;11.50;78.20;;;;;;5089537;28;20883;-74
2023/05/02 06:41:38;;;;;;;12.63;6.13;;;11.60;73.00;;;;;;5071408;28;20437;-74
2023/05/02 06:44:04;;;;;;;15.18;6.53;;;11.50;71.60;;;;;;5089641;28;20398;-74
2023/05/02 06:46:30;;;;;;;16.88;6.20;;;11.50;68.80;;;;;;5089939;28;20424;-74
2023/05/02 06:48:56;;;;;;;12.52;6.07;;;11.60;69.30;;;;;;5087175;28;20448;-73
2023/05/02 06:51:21;;;;;;;10.33;5.30;;;11.60;68.20;;;;;;5089353;28;20959;-76
2023/05/02 06:53:47;;;;;;;10.43;5.30;;;11.60;66.50;;;;;;5090853;28;20397;-74
2023/05/02 06:56:13;;;;;;;13.55;6.00;;;11.60;64.70;;;;;;5089992;28;20390;-74
2023/05/02 06:58:38;;;;;;;9.13;4.97;;;11.60;65.10;;;;;;5108099;28;20440;-73
2023/05/02 07:01:04;;;;;;;13.07;5.40;;;11.50;63.50;;;;;;5111784;28;20516;-73
2023/05/02 07:03:29;;;;;;;15.20;5.40;;;11.50;62.40;;;;;;5109888;28;20408;-74
2023/05/02 07:05:55;;;;;;;13.82;5.80;;;11.50;62.00;;;;;;5109510;28;20752;-74
2023/05/02 07:08:22;;;;;;;15.70;6.13;;;11.60;64.20;;;;;;5110400;28;20876;-74
2023/05/02 07:10:49;;;;;;;16.47;6.20;;;11.80;63.80;;;;;;5111662;28;20473;-73
2023/05/02 07:13:14;;;;;;;13.75;6.03;;;11.80;64.40;;;;;;5110130;28;20413;-73
2023/05/02 07:15:40;;;;;;;12.30;6.00;;;11.70;64.00;;;;;;5094418;28;20394;-73
2023/05/02 07:18:06;;;;;;;12.90;6.10;;;11.90;62.70;;;;;;5102419;28;20874;-75
2023/05/02 07:20:31;;;;;;;11.37;5.90;;;12.00;59.80;;;;;;5089159;28;20423;-75
2023/05/02 07:22:57;;;;;;;13.57;6.20;;;12.00;59.70;;;;;;5108985;28;20398;-74
2023/05/02 07:25:22;;;;;;;16.85;7.20;;;12.20;58.80;;;;;;5111972;28;20393;-73
2023/05/02 07:27:48;;;;;;;15.40;7.22;;;12.30;59.20;;;;;;5114546;28;20416;-73
2023/05/02 07:30:13;;;;;;;16.80;7.90;;;12.50;61.60;;;;;;5115082;28;20442;-74
2023/05/02 07:32:39;;;;;;;22.38;8.05;;;12.20;64.10;;;;;;5111894;28;20420;-75
2023/05/02 07:35:05;;;;;;;18.50;7.97;;;12.20;65.00;;;;;;5110731;28;20398;-74
2023/05/02 07:37:34;;;;;;;16.05;7.50;;;12.20;65.50;;;;;;5111574;28;20435;-75
2023/05/02 07:40:00;;;;;;;18.55;8.20;;;12.10;65.70;;;;;;5111709;28;20435;-76
2023/05/02 07:42:31;;;;;;;13.18;4.97;;;11.90;66.90;;;;;;5109533;28;20445;-73
2023/05/02 07:44:58;;;;;;;8.88;4.70;;;11.50;58.50;;;;;;5109704;28;20374;-74
2023/05/02 07:47:25;;;;;;;10.15;4.10;;;11.20;59.00;;;;;;5109010;28;20736;-74
2023/05/02 07:49:51;;;;;;;9.10;4.77;;;11.10;59.50;;;;;;5107411;28;20524;-76
2023/05/02 07:52:18;;;;;;;12.83;4.03;;;11.20;58.70;;;;;;5087603;28;20484;-76
2023/05/02 07:54:43;;;;;;;15.93;4.80;;;11.30;58.70;;;;;;5097132;28;20459;-73
2023/05/02 07:57:10;;;;;;;11.10;4.87;;;11.40;58.20;;;;;;5098374;28;20476;-74
2023/05/02 07:59:36;;;;;;;6.50;3.40;;;11.50;55.40;;;;;;5095086;28;20464;-74
2023/05/02 08:02:02;;;;;;;10.20;4.23;;;11.40;55.60;;;;;;5114520;28;20386;-73
2023/05/02 08:04:27;;;;;;;11.20;5.10;;;11.30;57.00;;;;;;5114919;28;20389;-73
2023/05/02 08:06:53;;;;;;;12.90;5.17;;;11.30;56.80;;;;;;5105936;28;20517;-73
2023/05/02 08:09:19;;;;;;;13.57;5.43;;;11.30;55.00;;;;;;5113854;28;20411;-74
2023/05/02 08:11:45;;;;;;;11.95;4.90;;;11.30;55.60;;;;;;5096640;28;20402;-73
2023/05/02 08:14:11;;;;;;;12.40;5.70;;;11.50;54.00;;;;;;5087560;28;20402;-75
2023/05/02 08:16:36;;;;;;;13.20;5.68;;;11.40;51.60;;;;;;5093539;28;20400;-75
2023/05/02 08:19:02;;;;;;;13.90;6.90;;;11.40;51.80;;;;;;5092378;28;20472;-76
2023/05/02 08:21:28;;;;;;;17.30;7.72;;;11.50;52.40;;;;;;5092774;28;20457;-73
2023/05/02 08:23:57;;;;;;;16.45;8.50;;;11.40;51.10;;;;;;5092158;28;20398;-75
2023/05/02 08:26:23;;;;;;;16.00;6.63;;;11.50;50.30;;;;;;5091164;28;20405;-74
2023/05/02 08:28:52;;;;;;;14.75;6.00;;;11.50;48.40;;;;;;5088674;28;20925;-75
2023/05/02 08:31:18;;;;;;;16.17;5.70;;;11.30;48.70;;;;;;5092278;28;20398;-74
2023/05/02 08:33:44;;;;;;;13.77;5.70;;;11.30;48.40;;;;;;5093768;28;20721;-73
2023/05/02 08:36:13;;;;;;;15.13;5.45;;;11.20;49.20;;;;;;5094374;28;20382;-73
2023/05/02 08:38:40;;;;;;;11.60;4.90;;;11.30;48.30;;;;;;5095238;28;20979;-74
2023/05/02 08:41:17;;;;;;;13.30;4.70;;;11.40;46.90;;;;;;5093893;28;20386;-72
2023/05/02 08:43:44;;;;;;;14.57;5.50;;;11.40;46.20;;;;;;5095204;28;20474;-72
2023/05/02 08:46:11;;;;;;;16.23;5.80;;;11.60;46.60;;;;;;5094471;28;20745;-71
2023/05/02 08:48:39;;;;;;;14.13;5.30;;;11.90;42.60;;;;;;5094463;28;20443;-73
2023/05/02 08:51:08;;;;;;;13.73;5.10;;;12.30;40.90;;;;;;5095522;28;20947;-73
2023/05/02 08:53:35;;;;;;;11.63;5.03;;;12.30;39.40;;;;;;5097775;28;20390;-72
2023/05/02 08:56:01;;;;;;;15.07;5.13;;;12.10;41.30;;;;;;5102122;28;20401;-72
2023/05/02 08:58:27;;;;;;;12.63;5.80;;;12.20;39.50;;;;;;5097744;28;20389;-73
2023/05/02 09:00:55;;;;;;;11.10;5.30;;;12.10;40.20;;;;;;5102788;28;20391;-72
2023/05/02 09:03:32;;;;;;;11.65;4.82;;;12.30;40.40;;;;;;5105824;28;20386;-73
2023/05/02 09:06:07;;;;;;;10.32;4.68;;;12.40;37.60;;;;;;5099302;28;20406;-75
2023/05/02 09:08:34;;;;;;;13.57;5.45;;;12.40;37.40;;;;;;5098730;28;20504;-73
2023/05/02 09:11:04;;;;;;;12.77;5.10;;;12.40;38.30;;;;;;5080320;28;20858;-74
2023/05/02 09:13:31;;;;;;;13.05;5.35;;;12.40;40.90;;;;;;5099431;28;20399;-74
2023/05/02 09:16:05;;;;;;;13.10;7.53;;;12.50;41.70;;;;;;5100517;28;20442;-73
2023/05/02 09:18:35;;;;;;;11.23;6.53;;;12.70;39.80;;;;;;5107158;22;20439;-74
2023/05/02 09:21:24;;;;;;;10.93;4.70;;;12.80;40.40;;;;;;5071559;28;20387;-73
2023/05/02 09:23:55;;;;;;;9.07;4.50;;;12.90;39.20;;;;;;5072174;28;20387;-73
2023/05/02 09:26:23;;;;;;;9.85;4.00;;;12.90;37.20;;;;;;5072231;28;20395;-74
2023/05/02 09:28:50;;;;;;;9.07;3.80;;;13.00;36.30;;;;;;5072339;28;20384;-74
2023/05/02 09:31:21;;;;;;;10.80;4.40;;;12.80;35.70;;;;;;5071438;28;20380;-74
2023/05/02 09:33:48;;;;;;;15.40;4.53;;;13.00;36.50;;;;;;5071963;28;20383;-74
2023/05/02 09:36:15;;;;;;;9.45;4.55;;;13.20;34.60;;;;;;5073082;28;20384;-74
2023/05/02 09:38:42;;;;;;;11.68;5.10;;;13.20;33.40;;;;;;5054286;28;20391;-74
2023/05/02 09:41:08;;;;;;;6.75;4.10;;;13.40;33.70;;;;;;5071604;28;20376;-74
2023/05/02 09:43:35;;;;;;;9.70;4.45;;;13.70;30.90;;;;;;5071937;28;20920;-74
2023/05/02 09:46:05;;;;;;;11.30;4.00;;;14.10;29.90;;;;;;5071782;28;20474;-73
2023/05/02 09:48:49;;;;;;;9.50;4.00;;;14.10;27.60;;;;;;5070662;28;20383;-74
2023/05/02 09:51:19;;;;;;;13.52;4.10;;;13.70;28.50;;;;;;5071239;28;20600;-74
2023/05/02 09:53:46;;;;;;;13.48;5.50;;;13.70;30.40;;;;;;5071892;28;20737;-74
2023/05/02 09:56:11;;;;;;;10.45;4.78;;;13.40;28.10;;;;;;5071817;28;20406;-74
2023/05/02 09:58:37;;;;;;;14.38;5.20;;;13.10;29.70;;;;;;5055201;28;21583;-74
2023/05/02 10:01:03;;;;;;;13.15;4.97;;;13.10;28.80;;;;;;5073174;28;20386;-74
2023/05/02 10:03:30;;;;;;;12.63;5.80;;;12.90;26.10;;;;;;5072422;28;20384;-73
2023/05/02 10:05:57;;;;;;;9.70;5.70;;;13.00;26.40;;;;;;5075845;28;20383;-75
2023/05/02 10:08:27;;;;;;;9.35;6.20;;;13.10;25.50;;;;;;5073875;28;20923;-74
2023/05/02 10:10:57;;;;;;;15.32;6.55;;;13.20;27.30;;;;;;5053425;28;20396;-74
2023/05/02 10:13:26;;;;;;;13.50;6.30;;;13.60;26.10;;;;;;5053845;28;20756;-72
2023/05/02 10:16:03;;;;;;;13.60;6.50;;;13.40;24.60;;;;;;5072096;28;20425;-74
2023/05/02 10:18:51;;;;;;;11.65;6.60;;;13.50;25.20;;;;;;5071499;28;20391;-73
2023/05/02 10:21:26;;;;;;;14.52;6.60;;;13.90;24.40;;;;;;5070454;28;20465;-74
2023/05/02 10:23:52;;;;;;;16.60;6.00;;;13.70;22.90;;;;;;5071491;28;20388;-74
2023/05/02 10:26:20;;;;;;;11.05;4.82;;;13.40;25.50;;;;;;5071324;28;20391;-74
2023/05/02 10:28:47;;;;;;;12.10;5.10;;;13.20;24.30;;;;;;5053233;28;20375;-74
2023/05/02 10:31:13;;;;;;;15.50;5.68;;;13.10;25.20;;;;;;5071007;28;20407;-74
2023/05/02 10:33:39;;;;;;;14.55;5.97;;;13.60;24.70;;;;;;5071051;28;20384;-75
2023/05/02 10:36:08;;;;;;;17.40;6.80;;;13.80;21.60;;;;;;5071407;28;20402;-73
2023/05/02 10:38:36;;;;;;;15.07;7.30;;;13.90;21.70;;;;;;5071279;28;20729;-75
2023/05/02 10:41:21;;;;;;;13.40;5.70;;;14.30;20.00;;;;;;5070645;28;20464;-74
2023/05/02 10:43:48;;;;;;;10.40;4.45;;;14.40;18.60;;;;;;5070893;28;20372;-73
2023/05/02 10:46:32;;;;;;;14.88;5.00;;;13.80;19.30;;;;;;5071323;28;20384;-74
2023/05/02 10:49:09;;;;;;;11.82;4.75;;;13.80;19.20;;;;;;5070698;28;20375;-74
2023/05/02 10:51:36;;;;;;;11.53;5.10;;;13.50;21.20;;;;;;5070273;28;20403;-74
2023/05/02 10:54:23;;;;;;;18.75;4.20;;;13.30;22.40;;;;;;5070930;28;20875;-74
2023/05/02 10:57:05;;;;;;;10.23;3.90;;;13.00;23.30;;;;;;5071021;28;20395;-74
2023/05/02 10:59:35;;;;;;;14.75;4.50;;;12.70;23.20;;;;;;5071715;28;20388;-73
2023/05/02 11:02:01;;;;;;;11.93;4.80;;;12.80;24.10;;;;;;5074662;28;20417;-74
2023/05/02 11:04:57;;;;;;;10.80;4.03;;;13.40;21.50;;;;;;5075073;28;20989;-73
2023/05/02 11:07:23;;;;;;;13.32;4.80;;;13.20;21.20;;;;;;5074674;28;20449;-73
2023/05/02 11:09:48;;;;;;;15.70;4.43;;;13.50;20.80;;;;;;5075039;28;20849;-73
2023/05/02 11:12:49;;;;;;;10.40;4.10;;;13.50;20.90;;;;;;5074692;28;20390;-74
2023/05/02 11:15:27;;;;;;;12.63;4.90;;;13.70;20.20;;;;;;5057193;28;20419;-74
2023/05/02 11:18:11;;;;;;;25.80;5.50;;;13.70;20.40;;;;;;5074229;28;20839;-74
2023/05/02 11:20:39;;;;;;;12.00;4.90;;;13.30;22.60;;;;;;5075128;28;20429;-74
2023/05/02 11:23:14;;;;;;;15.10;5.65;;;13.50;22.60;;;;;;5077454;28;20388;-74
2023/05/02 11:25:44;;;;;;;12.27;6.10;;;13.30;22.80;;;;;;5077592;28;20513;-73
2023/05/02 11:28:35;;;;;;;19.85;6.50;;;13.40;21.90;;;;;;5074356;28;20395;-75
2023/05/02 11:31:02;;;;;;;15.40;5.80;;;13.20;23.10;;;;;;5070225;28;20402;-75
2023/05/02 11:33:28;;;;;;;16.38;6.32;;;13.10;23.30;;;;;;5075074;28;20509;-74
2023/05/02 11:35:55;;;;;;;18.35;7.50;;;12.70;23.70;;;;;;5074976;28;20398;-75
2023/05/02 11:38:21;;;;;;;18.50;6.38;;;12.80;23.60;;;;;;5056621;28;20906;-74
2023/05/02 11:40:58;;;;;;;15.98;7.30;;;12.90;22.80;;;;;;5074080;28;20467;-75
2023/05/02 11:43:26;;;;;;;17.05;7.28;;;13.00;21.50;;;;;;5081201;28;20383;-72
2023/05/02 11:45:53;;;;;;;15.85;6.47;;;13.20;20.90;;;;;;5078361;28;20379;-73
2023/05/02 11:48:21;;;;;;;18.02;6.60;;;13.10;20.60;;;;;;5074004;28;20415;-74
2023/05/02 11:50:49;;;;;;;20.70;7.57;;;13.20;20.30;;;;;;5073823;28;20383;-74
2023/05/02 11:53:17;;;;;;;14.40;6.45;;;13.50;20.30;;;;;;5074314;28;20380;-72
2023/05/02 11:55:49;;;;;;;19.02;6.10;;;13.80;19.10;;;;;;5074465;28;20411;-74
2023/05/02 11:58:17;;;;;;;17.67;6.20;;;14.00;18.00;;;;;;5074028;28;20383;-72
2023/05/02 12:00:46;;;;;;;13.50;6.00;;;13.70;18.50;;;;;;5074954;28;20392;-73
2023/05/02 12:03:31;;;;;;;17.17;6.28;;;14.00;19.20;;;;;;5073180;28;20391;-74
2023/05/02 12:06:14;;;;;;;12.88;6.18;;;14.30;17.90;;;;;;5073675;28;20990;-74
2023/05/02 12:08:41;;;;;;;17.13;6.50;;;14.40;16.30;;;;;;5073494;28;20384;-73
2023/05/02 12:11:08;;;;;;;15.85;6.18;;;14.20;16.60;;;;;;5072722;28;20452;-73
2023/05/02 12:13:33;;;;;;;16.92;7.10;;;14.20;17.90;;;;;;5074002;28;20386;-73
2023/05/02 12:15:59;;;;;;;14.65;6.82;;;14.60;16.10;;;;;;5073753;28;20379;-74
2023/05/02 12:18:26;;;;;;;18.27;7.50;;;15.10;14.90;;;;;;5073474;28;20461;-76
2023/05/02 12:20:53;;;;;;;10.98;5.28;;;14.80;14.00;;;;;;5073087;28;20414;-74
2023/05/02 12:23:21;;;;;;;11.25;5.93;;;14.20;14.70;;;;;;5075081;28;20392;-75
2023/05/02 12:25:48;;;;;;;16.38;6.72;;;13.70;16.10;;;;;;5090032;28;20387;-74
2023/05/02 12:28:16;;;;;;;14.47;6.67;;;13.80;16.30;;;;;;5082639;28;20567;-73
2023/05/02 12:30:41;;;;;;;19.30;7.10;;;13.80;16.90;;;;;;5084321;28;20391;-73
2023/05/02 12:33:07;;;;;;;14.30;6.60;;;13.80;17.00;;;;;;5079988;28;20379;-74
2023/05/02 12:35:34;;;;;;;16.83;6.72;;;14.10;16.90;;;;;;5078368;28;20383;-74
2023/05/02 12:38:17;;;;;;;16.10;5.93;;;14.10;16.20;;;;;;5079014;28;20863;-73